Terminal Aerodrome Forecast
Issued by NWS Charleston, SC

Current Version | Previous Version | Text Only | Print | Product List | Glossary On
Versions: 1 2 3 4 5 6 7 8 9 10 11 12 13
000
FTUS42 KCHS 251140
TAFCHS
TAF
KCHS 251140Z 2512/2612 17004KT P6SM VCSH SCT080 BKN120
     FM251500 17011KT 5SM -SHRA SCT020 BKN035
     FM251700 19013G19KT 3SM TSRA SCT009 BKN015CB
     FM252300 23008KT 5SM -SHRA SCT020 BKN035
     FM260300 23009KT P6SM SCT035 BKN150 WS020/25040KT
     FM260800 24008KT P6SM SCT009 BKN015 WS020/26040KT=

USA.gov is the U.S. government's official web portal to all federal, state and local government web resources and services.